sensor_id;sensor_type;location;lat;lon;timestamp;pressure;altitude;pressure_sealevel;temperature;humidity
75972;BME280;64651;47.540;19.088;2023-05-10T00:04:48;100660.72;;;12.29;64.27
75972;BME280;64651;47.540;19.088;2023-05-10T00:09:50;100662.94;;;12.27;64.99
75972;BME280;64651;47.540;19.088;2023-05-10T00:14:53;100659.47;;;12.06;66.03
75972;BME280;64651;47.540;19.088;2023-05-10T00:19:55;100659.28;;;11.72;67.15
75972;BME280;64651;47.540;19.088;2023-05-10T00:24:58;100666.78;;;11.61;68.10
75972;BME280;64651;47.540;19.088;2023-05-10T00:30:00;100665.97;;;11.51;68.78
75972;BME280;64651;47.540;19.088;2023-05-10T00:35:02;100663.53;;;11.39;69.54
75972;BME280;64651;47.540;19.088;2023-05-10T00:40:05;100665.75;;;11.27;70.18
75972;BME280;64651;47.540;19.088;2023-05-10T00:45:08;100662.47;;;11.10;70.93
75972;BME280;64651;47.540;19.088;2023-05-10T00:50:10;100664.13;;;10.85;71.97
75972;BME280;64651;47.540;19.088;2023-05-10T00:55:13;100647.59;;;10.75;72.83
75972;BME280;64651;47.540;19.088;2023-05-10T01:00:15;100654.47;;;10.78;73.32
75972;BME280;64651;47.540;19.088;2023-05-10T01:05:20;100639.03;;;10.62;73.61
75972;BME280;64651;47.540;19.088;2023-05-10T01:10:23;100654.19;;;10.54;74.24
75972;BME280;64651;47.540;19.088;2023-05-10T01:15:26;100651.97;;;10.46;74.71
75972;BME280;64651;47.540;19.088;2023-05-10T01:20:43;100651.69;;;10.42;75.12
75972;BME280;64651;47.540;19.088;2023-05-10T01:41:57;100642.66;;;11.03;73.56
75972;BME280;64651;47.540;19.088;2023-05-10T01:47:42;100649.22;;;11.12;73.41
75972;BME280;64651;47.540;19.088;2023-05-10T01:52:42;100650.34;;;11.16;73.08
75972;BME280;64651;47.540;19.088;2023-05-10T01:57:51;100643.72;;;11.27;72.78
75972;BME280;64651;47.540;19.088;2023-05-10T02:02:55;100617.81;;;11.18;72.85
75972;BME280;64651;47.540;19.088;2023-05-10T02:07:59;100639.03;;;11.27;72.67
75972;BME280;64651;47.540;19.088;2023-05-10T02:13:03;100638.44;;;11.46;72.09
75972;BME280;64651;47.540;19.088;2023-05-10T02:18:09;100614.44;;;11.56;70.81
75972;BME280;64651;47.540;19.088;2023-05-10T02:23:13;100629.81;;;11.77;70.08
75972;BME280;64651;47.540;19.088;2023-05-10T02:28:18;100608.31;;;11.69;69.38
75972;BME280;64651;47.540;19.088;2023-05-10T02:33:21;100615.19;;;11.82;68.91
75972;BME280;64651;47.540;19.088;2023-05-10T02:38:25;100614.34;;;11.87;68.74
75972;BME280;64651;47.540;19.088;2023-05-10T02:43:30;100615.91;;;12.03;68.20
75972;BME280;64651;47.540;19.088;2023-05-10T02:48:34;100626.59;;;12.14;67.71
75972;BME280;64651;47.540;19.088;2023-05-10T02:53:38;100626.59;;;12.19;67.50
75972;BME280;64651;47.540;19.088;2023-05-10T02:58:42;100627.37;;;12.25;67.11
75972;BME280;64651;47.540;19.088;2023-05-10T03:03:45;100616.41;;;12.10;66.94
75972;BME280;64651;47.540;19.088;2023-05-10T03:08:47;100627.72;;;12.08;66.31
75972;BME280;64651;47.540;19.088;2023-05-10T03:19:37;100612.75;;;11.60;66.81
75972;BME280;64651;47.540;19.088;2023-05-10T03:24:42;100628.78;;;11.48;67.60
75972;BME280;64651;47.540;19.088;2023-05-10T03:29:45;100609.03;;;11.21;67.97
75972;BME280;64651;47.540;19.088;2023-05-10T03:34:48;100632.44;;;11.13;68.60
75972;BME280;64651;47.540;19.088;2023-05-10T03:39:50;100626.66;;;11.20;68.00
75972;BME280;64651;47.540;19.088;2023-05-10T03:44:52;100628.28;;;11.31;67.44
75972;BME280;64651;47.540;19.088;2023-05-10T03:49:55;100548.50;;;10.95;67.26
75972;BME280;64651;47.540;19.088;2023-05-10T03:54:57;100633.25;;;11.34;67.20
75972;BME280;64651;47.540;19.088;2023-05-10T03:59:59;100620.84;;;11.26;67.14
75972;BME280;64651;47.540;19.088;2023-05-10T04:05:02;100624.41;;;11.37;67.10
75972;BME280;64651;47.540;19.088;2023-05-10T04:10:04;100623.25;;;11.53;67.20
75972;BME280;64651;47.540;19.088;2023-05-10T04:15:07;100631.47;;;11.78;66.39
75972;BME280;64651;47.540;19.088;2023-05-10T04:20:10;100627.03;;;11.88;66.43
75972;BME280;64651;47.540;19.088;2023-05-10T04:25:12;100614.34;;;11.71;67.05
75972;BME280;64651;47.540;19.088;2023-05-10T04:30:15;100623.75;;;11.70;67.24
75972;BME280;64651;47.540;19.088;2023-05-10T04:35:17;100621.34;;;11.49;67.45
75972;BME280;64651;47.540;19.088;2023-05-10T04:40:20;100620.56;;;11.33;67.96
75972;BME280;64651;47.540;19.088;2023-05-10T04:45:22;100637.09;;;11.28;68.52
75972;BME280;64651;47.540;19.088;2023-05-10T04:50:24;100627.78;;;11.09;68.97
75972;BME280;64651;47.540;19.088;2023-05-10T04:55:27;100627.50;;;10.95;69.48
75972;BME280;64651;47.540;19.088;2023-05-10T05:00:29;100630.00;;;10.91;70.59
75972;BME280;64651;47.540;19.088;2023-05-10T05:05:31;100636.59;;;10.90;71.12
75972;BME280;64651;47.540;19.088;2023-05-10T05:10:33;100638.22;;;11.27;69.93
75972;BME280;64651;47.540;19.088;2023-05-10T05:15:35;100638.19;;;11.37;69.75
75972;BME280;64651;47.540;19.088;2023-05-10T05:20:37;100642.84;;;11.52;69.09
75972;BME280;64651;47.540;19.088;2023-05-10T05:25:40;100633.22;;;11.44;68.20
75972;BME280;64651;47.540;19.088;2023-05-10T05:30:42;100634.22;;;11.68;67.07
75972;BME280;64651;47.540;19.088;2023-05-10T05:35:44;100637.25;;;12.36;65.41
75972;BME280;64651;47.540;19.088;2023-05-10T05:40:49;100656.00;;;13.07;63.55
75972;BME280;64651;47.540;19.088;2023-05-10T05:45:55;100644.53;;;13.29;62.32
75972;BME280;64651;47.540;19.088;2023-05-10T05:51:00;100662.75;;;13.59;61.78
75972;BME280;64651;47.540;19.088;2023-05-10T05:56:02;100656.59;;;13.38;61.78
75972;BME280;64651;47.540;19.088;2023-05-10T06:01:05;100667.13;;;13.02;63.03
75972;BME280;64651;47.540;19.088;2023-05-10T06:06:07;100676.28;;;12.97;63.21
75972;BME280;64651;47.540;19.088;2023-05-10T06:11:10;100659.66;;;13.02;62.95
75972;BME280;64651;47.540;19.088;2023-05-10T06:16:12;100670.81;;;12.92;63.38
75972;BME280;64651;47.540;19.088;2023-05-10T06:21:15;100670.47;;;12.94;63.68
75972;BME280;64651;47.540;19.088;2023-05-10T06:26:18;100656.34;;;13.34;62.11
75972;BME280;64651;47.540;19.088;2023-05-10T06:31:20;100657.22;;;13.59;61.35
75972;BME280;64651;47.540;19.088;2023-05-10T06:36:22;100667.25;;;14.40;59.57
75972;BME280;64651;47.540;19.088;2023-05-10T06:41:26;100676.09;;;13.99;58.94
75972;BME280;64651;47.540;19.088;2023-05-10T06:46:35;100673.97;;;14.34;58.95
75972;BME280;64651;47.540;19.088;2023-05-10T06:51:37;100673.19;;;14.09;59.96
75972;BME280;64651;47.540;19.088;2023-05-10T06:56:39;100670.97;;;14.30;59.42
75972;BME280;64651;47.540;19.088;2023-05-10T07:01:41;100661.50;;;14.92;57.95
75972;BME280;64651;47.540;19.088;2023-05-10T07:06:44;100676.16;;;15.25;57.39
75972;BME280;64651;47.540;19.088;2023-05-10T07:11:48;100666.94;;;15.90;55.24
75972;BME280;64651;47.540;19.088;2023-05-10T07:16:50;100670.56;;;16.04;55.00
75972;BME280;64651;47.540;19.088;2023-05-10T07:21:52;100667.19;;;16.43;53.58
75972;BME280;64651;47.540;19.088;2023-05-10T07:26:54;100657.22;;;16.78;52.80
75972;BME280;64651;47.540;19.088;2023-05-10T07:31:56;100660.19;;;16.45;52.97
75972;BME280;64651;47.540;19.088;2023-05-10T07:37:00;100655.34;;;16.87;51.49
75972;BME280;64651;47.540;19.088;2023-05-10T07:42:02;100657.31;;;18.01;49.35
75972;BME280;64651;47.540;19.088;2023-05-10T07:47:05;100637.06;;;19.21;46.12
75972;BME280;64651;47.540;19.088;2023-05-10T07:52:07;100650.47;;;19.54;45.12
75972;BME280;64651;47.540;19.088;2023-05-10T07:57:09;100646.22;;;19.39;45.04
75972;BME280;64651;47.540;19.088;2023-05-10T08:02:11;100648.31;;;21.30;41.54
75972;BME280;64651;47.540;19.088;2023-05-10T08:07:14;100648.66;;;19.58;44.51
75972;BME280;64651;47.540;19.088;2023-05-10T08:12:16;100643.19;;;21.32;40.70
75972;BME280;64651;47.540;19.088;2023-05-10T08:17:18;100635.75;;;20.12;43.29
75972;BME280;64651;47.540;19.088;2023-05-10T08:22:22;100636.91;;;19.81;43.51
75972;BME280;64651;47.540;19.088;2023-05-10T08:27:25;100648.75;;;19.15;44.84
75972;BME280;64651;47.540;19.088;2023-05-10T08:32:27;100638.47;;;20.50;41.21
75972;BME280;64651;47.540;19.088;2023-05-10T08:37:30;100643.81;;;20.43;41.77
75972;BME280;64651;47.540;19.088;2023-05-10T08:42:34;100649.06;;;18.53;45.46
75972;BME280;64651;47.540;19.088;2023-05-10T08:47:38;100648.34;;;19.89;42.95
75972;BME280;64651;47.540;19.088;2023-05-10T08:52:41;100624.38;;;23.34;35.57
75972;BME280;64651;47.540;19.088;2023-05-10T08:57:43;100635.50;;;21.99;37.99
75972;BME280;64651;47.540;19.088;2023-05-10T09:02:48;100638.28;;;24.56;33.84
75972;BME280;64651;47.540;19.088;2023-05-10T09:07:51;100632.78;;;24.44;33.50
75972;BME280;64651;47.540;19.088;2023-05-10T09:12:56;100621.25;;;25.68;31.30
75972;BME280;64651;47.540;19.088;2023-05-10T09:18:00;100633.59;;;25.60;31.72
75972;BME280;64651;47.540;19.088;2023-05-10T09:23:04;100624.28;;;26.05;29.40
75972;BME280;64651;47.540;19.088;2023-05-10T09:28:08;100621.69;;;24.71;31.35
75972;BME280;64651;47.540;19.088;2023-05-10T09:33:11;100612.59;;;27.19;28.20
75972;BME280;64651;47.540;19.088;2023-05-10T09:38:13;100623.25;;;26.40;29.17
75972;BME280;64651;47.540;19.088;2023-05-10T09:43:15;100610.44;;;27.46;27.43
75972;BME280;64651;47.540;19.088;2023-05-10T09:48:17;100616.00;;;24.86;30.32
75972;BME280;64651;47.540;19.088;2023-05-10T09:53:20;100609.59;;;27.42;27.30
75972;BME280;64651;47.540;19.088;2023-05-10T09:58:22;100603.16;;;25.27;29.84
75972;BME280;64651;47.540;19.088;2023-05-10T10:03:24;100606.41;;;26.77;28.20
75972;BME280;64651;47.540;19.088;2023-05-10T10:08:28;100604.66;;;26.12;29.85
75972;BME280;64651;47.540;19.088;2023-05-10T10:13:30;100586.13;;;27.82;26.86
75972;BME280;64651;47.540;19.088;2023-05-10T10:18:36;100579.78;;;25.92;27.65
75972;BME280;64651;47.540;19.088;2023-05-10T10:23:40;100576.59;;;27.53;26.69
75972;BME280;64651;47.540;19.088;2023-05-10T10:38:58;100568.59;;;27.22;26.80
75972;BME280;64651;47.540;19.088;2023-05-10T10:44:33;100568.75;;;24.95;29.73
75972;BME280;64651;47.540;19.088;2023-05-10T10:49:44;100566.28;;;23.38;32.00
75972;BME280;64651;47.540;19.088;2023-05-10T10:54:51;100559.59;;;22.04;33.44
75972;BME280;64651;47.540;19.088;2023-05-10T11:10:30;100533.53;;;29.68;23.30
75972;BME280;64651;47.540;19.088;2023-05-10T11:15:37;100520.97;;;29.66;22.22
75972;BME280;64651;47.540;19.088;2023-05-10T11:20:40;100520.19;;;27.67;24.50
75972;BME280;64651;47.540;19.088;2023-05-10T11:25:42;100524.63;;;28.27;23.93
75972;BME280;64651;47.540;19.088;2023-05-10T11:30:46;100503.25;;;30.77;21.28
75972;BME280;64651;47.540;19.088;2023-05-10T11:35:49;100497.59;;;32.21;20.04
75972;BME280;64651;47.540;19.088;2023-05-10T11:40:51;100500.91;;;26.92;25.63
75972;BME280;64651;47.540;19.088;2023-05-10T11:45:54;100487.97;;;33.03;18.82
75972;BME280;64651;47.540;19.088;2023-05-10T11:50:57;100495.50;;;27.64;24.31
75972;BME280;64651;47.540;19.088;2023-05-10T11:56:06;100498.97;;;26.66;25.38
75972;BME280;64651;47.540;19.088;2023-05-10T12:01:09;100504.78;;;23.49;29.78
75972;BME280;64651;47.540;19.088;2023-05-10T12:06:12;100514.50;;;22.49;31.97
75972;BME280;64651;47.540;19.088;2023-05-10T12:11:14;100521.53;;;21.54;33.95
75972;BME280;64651;47.540;19.088;2023-05-10T12:16:21;100512.88;;;21.96;33.62
75972;BME280;64651;47.540;19.088;2023-05-10T12:21:25;100501.06;;;21.90;33.10
75972;BME280;64651;47.540;19.088;2023-05-10T12:26:28;100507.78;;;22.38;32.21
75972;BME280;64651;47.540;19.088;2023-05-10T12:31:30;100502.69;;;22.15;32.75
75972;BME280;64651;47.540;19.088;2023-05-10T12:36:38;100493.34;;;22.79;31.80
75972;BME280;64651;47.540;19.088;2023-05-10T12:41:40;100485.75;;;22.80;31.81
75972;BME280;64651;47.540;19.088;2023-05-10T12:46:44;100470.00;;;23.38;30.92
75972;BME280;64651;47.540;19.088;2023-05-10T12:51:46;100484.19;;;24.50;29.35
75972;BME280;64651;47.540;19.088;2023-05-10T12:56:48;100475.44;;;23.15;31.28
75972;BME280;64651;47.540;19.088;2023-05-10T13:01:50;100471.16;;;22.74;32.03
75972;BME280;64651;47.540;19.088;2023-05-10T13:06:53;100448.88;;;22.38;32.43
75972;BME280;64651;47.540;19.088;2023-05-10T13:11:57;100460.31;;;23.20;31.53
75972;BME280;64651;47.540;19.088;2023-05-10T13:16:59;100437.37;;;24.03;29.85
75972;BME280;64651;47.540;19.088;2023-05-10T13:22:02;100454.63;;;23.16;31.28
75972;BME280;64651;47.540;19.088;2023-05-10T13:27:04;100437.91;;;22.60;31.08
75972;BME280;64651;47.540;19.088;2023-05-10T13:32:07;100433.44;;;25.57;26.35
75972;BME280;64651;47.540;19.088;2023-05-10T13:37:09;100415.81;;;25.93;26.47
75972;BME280;64651;47.540;19.088;2023-05-10T13:42:11;100426.87;;;25.26;27.55
75972;BME280;64651;47.540;19.088;2023-05-10T13:47:14;100414.72;;;24.96;27.86
75972;BME280;64651;47.540;19.088;2023-05-10T13:52:16;100417.19;;;23.28;30.26
75972;BME280;64651;47.540;19.088;2023-05-10T13:57:18;100405.75;;;25.92;26.35
75972;BME280;64651;47.540;19.088;2023-05-10T14:02:20;100414.38;;;24.55;27.61
75972;BME280;64651;47.540;19.088;2023-05-10T14:07:23;100391.09;;;24.58;27.90
75972;BME280;64651;47.540;19.088;2023-05-10T14:12:25;100386.03;;;26.25;25.45
75972;BME280;64651;47.540;19.088;2023-05-10T14:17:27;100384.22;;;26.44;25.22
75972;BME280;64651;47.540;19.088;2023-05-10T14:22:29;100381.81;;;25.79;25.80
75972;BME280;64651;47.540;19.088;2023-05-10T14:27:32;100374.12;;;28.03;23.24
75972;BME280;64651;47.540;19.088;2023-05-10T14:32:34;100356.38;;;27.34;23.65
75972;BME280;64651;47.540;19.088;2023-05-10T14:37:38;100377.66;;;27.79;22.07
75972;BME280;64651;47.540;19.088;2023-05-10T14:42:42;100366.84;;;26.42;23.17
75972;BME280;64651;47.540;19.088;2023-05-10T14:47:44;100371.88;;;26.22;24.83
75972;BME280;64651;47.540;19.088;2023-05-10T14:52:46;100365.38;;;26.18;25.73
75972;BME280;64651;47.540;19.088;2023-05-10T14:57:49;100365.84;;;25.90;26.02
75972;BME280;64651;47.540;19.088;2023-05-10T15:02:52;100369.56;;;23.66;28.70
75972;BME280;64651;47.540;19.088;2023-05-10T15:07:55;100380.69;;;21.66;31.88
75972;BME280;64651;47.540;19.088;2023-05-10T15:12:57;100384.28;;;21.26;32.19
75972;BME280;64651;47.540;19.088;2023-05-10T15:18:00;100380.41;;;20.82;32.19
75972;BME280;64651;47.540;19.088;2023-05-10T15:23:02;100385.84;;;20.42;32.67
75972;BME280;64651;47.540;19.088;2023-05-10T15:28:04;100390.03;;;20.15;32.66
75972;BME280;64651;47.540;19.088;2023-05-10T15:33:06;100377.13;;;19.90;33.26
75972;BME280;64651;47.540;19.088;2023-05-10T15:38:10;100382.91;;;19.85;33.54
75972;BME280;64651;47.540;19.088;2023-05-10T15:43:13;100372.94;;;19.63;34.11
75972;BME280;64651;47.540;19.088;2023-05-10T15:48:15;100363.91;;;19.78;34.42
75972;BME280;64651;47.540;19.088;2023-05-10T15:53:18;100362.00;;;19.70;35.09
75972;BME280;64651;47.540;19.088;2023-05-10T15:58:20;100350.44;;;21.07;32.86
75972;BME280;64651;47.540;19.088;2023-05-10T16:03:22;100369.78;;;20.76;34.17
75972;BME280;64651;47.540;19.088;2023-05-10T16:08:27;100366.09;;;20.96;34.32
75972;BME280;64651;47.540;19.088;2023-05-10T16:13:31;100356.41;;;20.24;35.35
75972;BME280;64651;47.540;19.088;2023-05-10T16:18:34;100370.50;;;19.95;34.45
75972;BME280;64651;47.540;19.088;2023-05-10T16:23:36;100369.28;;;19.83;34.78
75972;BME280;64651;47.540;19.088;2023-05-10T16:28:38;100363.88;;;19.66;34.94
75972;BME280;64651;47.540;19.088;2023-05-10T16:33:41;100373.72;;;19.84;34.86
75972;BME280;64651;47.540;19.088;2023-05-10T16:38:44;100374.53;;;19.64;35.31
75972;BME280;64651;47.540;19.088;2023-05-10T16:43:46;100382.94;;;19.35;36.30
75972;BME280;64651;47.540;19.088;2023-05-10T16:48:49;100378.06;;;19.32;36.58
75972;BME280;64651;47.540;19.088;2023-05-10T16:53:52;100381.12;;;19.10;37.33
75972;BME280;64651;47.540;19.088;2023-05-10T16:58:54;100388.03;;;18.74;38.53
75972;BME280;64651;47.540;19.088;2023-05-10T17:03:56;100381.59;;;18.36;39.93
75972;BME280;64651;47.540;19.088;2023-05-10T17:08:58;100400.66;;;18.16;40.99
75972;BME280;64651;47.540;19.088;2023-05-10T17:14:01;100410.81;;;17.95;41.84
75972;BME280;64651;47.540;19.088;2023-05-10T17:19:04;100398.84;;;17.69;42.27
75972;BME280;64651;47.540;19.088;2023-05-10T17:24:06;100411.41;;;17.58;42.85
75972;BME280;64651;47.540;19.088;2023-05-10T17:29:09;100404.56;;;17.38;43.35
75972;BME280;64651;47.540;19.088;2023-05-10T17:34:11;100412.53;;;17.31;43.71
75972;BME280;64651;47.540;19.088;2023-05-10T17:39:14;100414.47;;;17.13;44.40
75972;BME280;64651;47.540;19.088;2023-05-10T17:44:16;100408.84;;;16.96;44.55
75972;BME280;64651;47.540;19.088;2023-05-10T17:49:18;100430.75;;;16.89;44.50
75972;BME280;64651;47.540;19.088;2023-05-10T17:54:20;100426.06;;;16.67;44.83
75972;BME280;64651;47.540;19.088;2023-05-10T17:59:23;100423.09;;;16.41;45.15
75972;BME280;64651;47.540;19.088;2023-05-10T18:04:25;100434.84;;;16.38;45.21
75972;BME280;64651;47.540;19.088;2023-05-10T18:09:27;100430.22;;;16.03;46.25
75972;BME280;64651;47.540;19.088;2023-05-10T18:14:30;100431.62;;;15.78;46.42
75972;BME280;64651;47.540;19.088;2023-05-10T18:19:41;100437.72;;;15.66;46.61
75972;BME280;64651;47.540;19.088;2023-05-10T18:24:43;100453.97;;;15.59;46.57
75972;BME280;64651;47.540;19.088;2023-05-10T18:29:47;100442.34;;;15.43;46.43
75972;BME280;64651;47.540;19.088;2023-05-10T18:34:50;100462.59;;;15.44;46.58
75972;BME280;64651;47.540;19.088;2023-05-10T18:39:54;100444.94;;;15.26;47.20
75972;BME280;64651;47.540;19.088;2023-05-10T18:44:57;100463.41;;;15.31;46.84
75972;BME280;64651;47.540;19.088;2023-05-10T18:49:59;100461.41;;;15.23;46.90
75972;BME280;64651;47.540;19.088;2023-05-10T18:55:02;100471.13;;;15.20;46.67
75972;BME280;64651;47.540;19.088;2023-05-10T19:00:04;100471.44;;;15.19;46.54
75972;BME280;64651;47.540;19.088;2023-05-10T19:05:08;100479.22;;;15.44;46.82
75972;BME280;64651;47.540;19.088;2023-05-10T19:10:11;100490.53;;;15.48;46.88
75972;BME280;64651;47.540;19.088;2023-05-10T19:15:16;100467.72;;;15.37;46.66
75972;BME280;64651;47.540;19.088;2023-05-10T19:20:22;100497.22;;;15.47;46.91
75972;BME280;64651;47.540;19.088;2023-05-10T19:25:25;100497.00;;;15.43;47.31
75972;BME280;64651;47.540;19.088;2023-05-10T19:30:30;100488.47;;;15.39;47.76
75972;BME280;64651;47.540;19.088;2023-05-10T19:35:32;100492.06;;;15.40;47.89
75972;BME280;64651;47.540;19.088;2023-05-10T19:40:34;100494.13;;;15.34;48.48
75972;BME280;64651;47.540;19.088;2023-05-10T19:45:37;100486.12;;;15.19;48.59
75972;BME280;64651;47.540;19.088;2023-05-10T19:50:39;100480.66;;;15.00;49.22
75972;BME280;64651;47.540;19.088;2023-05-10T19:55:41;100492.38;;;14.97;49.51
75972;BME280;64651;47.540;19.088;2023-05-10T20:00:44;100487.44;;;14.94;49.22
75972;BME280;64651;47.540;19.088;2023-05-10T20:05:46;100487.97;;;14.96;49.51
75972;BME280;64651;47.540;19.088;2023-05-10T20:10:48;100487.44;;;15.08;48.40
75972;BME280;64651;47.540;19.088;2023-05-10T20:15:57;100491.06;;;15.09;47.96
75972;BME280;64651;47.540;19.088;2023-05-10T20:21:00;100491.16;;;15.17;47.62
75972;BME280;64651;47.540;19.088;2023-05-10T20:26:03;100491.47;;;15.16;47.90
75972;BME280;64651;47.540;19.088;2023-05-10T20:31:05;100486.12;;;15.06;47.56
75972;BME280;64651;47.540;19.088;2023-05-10T20:36:07;100485.41;;;15.00;48.17
75972;BME280;64651;47.540;19.088;2023-05-10T20:41:10;100495.88;;;15.17;47.72
75972;BME280;64651;47.540;19.088;2023-05-10T20:46:12;100498.56;;;15.22;47.40
75972;BME280;64651;47.540;19.088;2023-05-10T20:51:15;100480.06;;;15.03;47.79
75972;BME280;64651;47.540;19.088;2023-05-10T20:56:17;100497.72;;;15.08;48.36
75972;BME280;64651;47.540;19.088;2023-05-10T21:01:19;100484.91;;;14.98;48.19
75972;BME280;64651;47.540;19.088;2023-05-10T21:06:22;100495.97;;;14.98;48.84
75972;BME280;64651;47.540;19.088;2023-05-10T21:11:24;100500.69;;;14.97;48.47
75972;BME280;64651;47.540;19.088;2023-05-10T21:16:26;100488.09;;;15.05;48.69
75972;BME280;64651;47.540;19.088;2023-05-10T21:21:29;100500.16;;;14.95;49.38
75972;BME280;64651;47.540;19.088;2023-05-10T21:26:31;100494.13;;;14.93;50.39
75972;BME280;64651;47.540;19.088;2023-05-10T21:31:33;100484.87;;;14.84;50.95
75972;BME280;64651;47.540;19.088;2023-05-10T21:36:35;100484.53;;;14.72;51.64
75972;BME280;64651;47.540;19.088;2023-05-10T21:41:37;100491.44;;;14.88;51.53
75972;BME280;64651;47.540;19.088;2023-05-10T21:46:40;100477.25;;;14.76;51.22
75972;BME280;64651;47.540;19.088;2023-05-10T21:51:42;100490.31;;;14.76;51.55
75972;BME280;64651;47.540;19.088;2023-05-10T21:56:44;100491.53;;;14.70;51.69
75972;BME280;64651;47.540;19.088;2023-05-10T22:01:46;100494.81;;;14.72;51.58
75972;BME280;64651;47.540;19.088;2023-05-10T22:06:49;100491.31;;;14.66;51.12
75972;BME280;64651;47.540;19.088;2023-05-10T22:11:51;100506.41;;;14.74;50.98
75972;BME280;64651;47.540;19.088;2023-05-10T22:16:53;100491.53;;;14.70;51.01
75972;BME280;64651;47.540;19.088;2023-05-10T22:21:55;100499.91;;;14.65;51.23
75972;BME280;64651;47.540;19.088;2023-05-10T22:26:58;100496.25;;;14.69;50.79
75972;BME280;64651;47.540;19.088;2023-05-10T22:32:00;100506.28;;;14.65;50.76
75972;BME280;64651;47.540;19.088;2023-05-10T22:37:06;100495.81;;;14.62;50.76
75972;BME280;64651;47.540;19.088;2023-05-10T22:42:08;100513.47;;;14.66;50.58
75972;BME280;64651;47.540;19.088;2023-05-10T22:47:10;100502.13;;;14.49;50.31
75972;BME280;64651;47.540;19.088;2023-05-10T22:52:13;100500.66;;;14.19;50.99
75972;BME280;64651;47.540;19.088;2023-05-10T22:57:15;100520.56;;;14.02;51.34
75972;BME280;64651;47.540;19.088;2023-05-10T23:02:18;100502.78;;;13.71;50.85
75972;BME280;64651;47.540;19.088;2023-05-10T23:07:20;100521.81;;;13.72;49.44
75972;BME280;64651;47.540;19.088;2023-05-10T23:12:22;100513.81;;;13.52;49.27
75972;BME280;64651;47.540;19.088;2023-05-10T23:17:25;100517.09;;;13.30;50.01
75972;BME280;64651;47.540;19.088;2023-05-10T23:22:27;100522.00;;;13.15;50.93
75972;BME280;64651;47.540;19.088;2023-05-10T23:27:29;100519.25;;;13.10;51.19
75972;BME280;64651;47.540;19.088;2023-05-10T23:32:31;100517.16;;;13.25;50.59
75972;BME280;64651;47.540;19.088;2023-05-10T23:37:34;100503.03;;;13.51;49.43
75972;BME280;64651;47.540;19.088;2023-05-10T23:42:37;100522.91;;;13.53;50.26
75972;BME280;64651;47.540;19.088;2023-05-10T23:47:39;100534.84;;;13.48;50.15
75972;BME280;64651;47.540;19.088;2023-05-10T23:52:42;100532.69;;;13.45;50.60
75972;BME280;64651;47.540;19.088;2023-05-10T23:57:44;100522.53;;;13.40;51.03
